sensor_id;sensor_type;location;lat;lon;timestamp;pressure;altitude;pressure_sealevel;temperature;humidity
80500;BME280;69823;54.120;-4.710;2023-06-14T00:00:17;100234.88;;;30.26;21.78
80500;BME280;69823;54.120;-4.710;2023-06-14T00:02:42;100229.84;;;30.79;21.76
80500;BME280;69823;54.120;-4.710;2023-06-14T00:05:08;100237.99;;;30.83;21.74
80500;BME280;69823;54.120;-4.710;2023-06-14T00:07:35;100238.99;;;30.81;21.74
80500;BME280;69823;54.120;-4.710;2023-06-14T00:09:59;100235.63;;;30.57;21.75
80500;BME280;69823;54.120;-4.710;2023-06-14T00:12:25;100237.32;;;30.78;21.76
80500;BME280;69823;54.120;-4.710;2023-06-14T00:14:50;100241.29;;;30.55;21.76
80500;BME280;69823;54.120;-4.710;2023-06-14T00:17:15;100242.30;;;30.59;21.75
80500;BME280;69823;54.120;-4.710;2023-06-14T00:19:41;100241.97;;;30.57;21.77
80500;BME280;69823;54.120;-4.710;2023-06-14T00:22:07;100239.46;;;30.50;21.79
80500;BME280;69823;54.120;-4.710;2023-06-14T00:24:32;100248.84;;;31.01;21.81
80500;BME280;69823;54.120;-4.710;2023-06-14T00:26:58;100245.66;;;30.65;21.70
80500;BME280;69823;54.120;-4.710;2023-06-14T00:29:23;100244.34;;;30.62;21.70
80500;BME280;69823;54.120;-4.710;2023-06-14T00:31:49;100254.50;;;30.64;21.70
80500;BME280;69823;54.120;-4.710;2023-06-14T00:34:14;100250.43;;;30.85;21.72
80500;BME280;69823;54.120;-4.710;2023-06-14T00:36:39;100253.61;;;30.61;21.72
80500;BME280;69823;54.120;-4.710;2023-06-14T00:39:05;100251.02;;;30.60;21.75
80500;BME280;69823;54.120;-4.710;2023-06-14T00:41:31;100256.29;;;30.60;21.75
80500;BME280;69823;54.120;-4.710;2023-06-14T00:43:56;100259.23;;;30.64;21.70
80500;BME280;69823;54.120;-4.710;2023-06-14T00:46:21;100257.60;;;30.87;21.74
80500;BME280;69823;54.120;-4.710;2023-06-14T00:48:47;100262.42;;;30.84;21.76
80500;BME280;69823;54.120;-4.710;2023-06-14T00:51:11;100263.77;;;30.59;21.75
80500;BME280;69823;54.120;-4.710;2023-06-14T00:53:37;100260.11;;;30.57;21.77
80500;BME280;69823;54.120;-4.710;2023-06-14T00:56:03;100267.13;;;30.55;21.79
80500;BME280;69823;54.120;-4.710;2023-06-14T00:58:28;100267.99;;;30.79;21.77
80500;BME280;69823;54.120;-4.710;2023-06-14T01:00:54;100272.03;;;30.57;21.76
80500;BME280;69823;54.120;-4.710;2023-06-14T01:03:19;100268.25;;;30.29;21.79
80500;BME280;69823;54.120;-4.710;2023-06-14T01:05:44;100272.87;;;30.54;21.80
80500;BME280;69823;54.120;-4.710;2023-06-14T01:08:21;100276.75;;;30.55;21.79
80500;BME280;69823;54.120;-4.710;2023-06-14T01:10:42;100275.61;;;30.56;21.79
80500;BME280;69823;54.120;-4.710;2023-06-14T01:13:07;100278.85;;;30.52;21.82
80500;BME280;69823;54.120;-4.710;2023-06-14T01:15:27;100281.03;;;30.52;21.82
80500;BME280;69823;54.120;-4.710;2023-06-14T01:17:52;100278.22;;;30.51;21.84
80500;BME280;69823;54.120;-4.710;2023-06-14T01:20:19;100277.67;;;30.53;21.83
80500;BME280;69823;54.120;-4.710;2023-06-14T01:22:50;100275.96;;;30.51;21.84
80500;BME280;69823;54.120;-4.710;2023-06-14T01:25:09;100280.46;;;30.48;21.88
80500;BME280;69823;54.120;-4.710;2023-06-14T01:27:34;100276.23;;;30.93;21.87
80500;BME280;69823;54.120;-4.710;2023-06-14T01:29:59;100279.91;;;30.43;21.92
80500;BME280;69823;54.120;-4.710;2023-06-14T01:32:26;100282.57;;;30.45;21.91
80500;BME280;69823;54.120;-4.710;2023-06-14T01:34:50;100281.03;;;30.71;21.90
80500;BME280;69823;54.120;-4.710;2023-06-14T01:37:16;100283.19;;;30.44;21.92
80500;BME280;69823;54.120;-4.710;2023-06-14T01:39:42;100282.03;;;30.42;21.93
80500;BME280;69823;54.120;-4.710;2023-06-14T01:42:07;100282.59;;;30.43;21.92
80500;BME280;69823;54.120;-4.710;2023-06-14T01:44:32;100281.44;;;30.45;21.93
80500;BME280;69823;54.120;-4.710;2023-06-14T01:46:57;100284.87;;;30.43;21.94
80500;BME280;69823;54.120;-4.710;2023-06-14T01:49:23;100284.97;;;30.43;21.94
80500;BME280;69823;54.120;-4.710;2023-06-14T01:51:49;100285.15;;;30.44;21.93
80500;BME280;69823;54.120;-4.710;2023-06-14T01:54:14;100285.74;;;30.47;21.91
80500;BME280;69823;54.120;-4.710;2023-06-14T01:56:40;100284.95;;;30.45;21.94
80500;BME280;69823;54.120;-4.710;2023-06-14T01:59:05;100284.36;;;30.47;21.91
80500;BME280;69823;54.120;-4.710;2023-06-14T02:01:31;100288.67;;;30.47;21.91
80500;BME280;69823;54.120;-4.710;2023-06-14T02:03:56;100285.45;;;30.45;21.92
80500;BME280;69823;54.120;-4.710;2023-06-14T02:06:22;100288.41;;;30.41;21.96
80500;BME280;69823;54.120;-4.710;2023-06-14T02:08:47;100287.91;;;30.60;21.98
80500;BME280;69823;54.120;-4.710;2023-06-14T02:11:13;100288.62;;;30.32;21.99
80500;BME280;69823;54.120;-4.710;2023-06-14T02:13:38;100292.38;;;30.32;22.01
80500;BME280;69823;54.120;-4.710;2023-06-14T02:16:04;100293.27;;;30.35;21.99
80500;BME280;69823;54.120;-4.710;2023-06-14T02:18:30;100296.41;;;30.38;21.96
80500;BME280;69823;54.120;-4.710;2023-06-14T02:20:56;100295.20;;;30.41;21.96
80500;BME280;69823;54.120;-4.710;2023-06-14T02:23:21;100296.60;;;30.36;21.97
80500;BME280;69823;54.120;-4.710;2023-06-14T02:25:46;100296.34;;;30.33;22.02
80500;BME280;69823;54.120;-4.710;2023-06-14T02:28:12;100295.35;;;30.36;21.97
80500;BME280;69823;54.120;-4.710;2023-06-14T02:30:38;100298.08;;;30.31;22.00
80500;BME280;69823;54.120;-4.710;2023-06-14T02:33:03;100298.34;;;30.39;21.96
80500;BME280;69823;54.120;-4.710;2023-06-14T02:35:30;100297.72;;;30.39;21.96
80500;BME280;69823;54.120;-4.710;2023-06-14T02:37:54;100301.12;;;30.38;21.93
80500;BME280;69823;54.120;-4.710;2023-06-14T02:40:20;100298.18;;;30.40;21.93
80500;BME280;69823;54.120;-4.710;2023-06-14T02:42:45;100299.47;;;30.37;21.94
80500;BME280;69823;54.120;-4.710;2023-06-14T02:45:11;100298.06;;;30.37;21.97
80500;BME280;69823;54.120;-4.710;2023-06-14T02:47:36;100295.83;;;30.36;21.99
80500;BME280;69823;54.120;-4.710;2023-06-14T02:50:02;100299.09;;;30.36;21.95
80500;BME280;69823;54.120;-4.710;2023-06-14T02:52:28;100300.71;;;30.60;21.96
80500;BME280;69823;54.120;-4.710;2023-06-14T02:54:53;100302.68;;;30.57;21.98
80500;BME280;69823;54.120;-4.710;2023-06-14T02:57:19;100303.24;;;30.32;21.99
80500;BME280;69823;54.120;-4.710;2023-06-14T02:59:44;100301.84;;;30.56;22.00
80500;BME280;69823;54.120;-4.710;2023-06-14T03:02:10;100301.56;;;30.30;22.02
80500;BME280;69823;54.120;-4.710;2023-06-14T03:04:35;100298.79;;;30.56;22.02
80500;BME280;69823;54.120;-4.710;2023-06-14T03:07:01;100300.91;;;30.74;22.04
80500;BME280;69823;54.120;-4.710;2023-06-14T03:09:26;100299.56;;;30.31;22.01
80500;BME280;69823;54.120;-4.710;2023-06-14T03:11:51;100301.11;;;30.31;22.00
80500;BME280;69823;54.120;-4.710;2023-06-14T03:14:16;100299.25;;;30.29;22.04
80500;BME280;69823;54.120;-4.710;2023-06-14T03:16:41;100299.39;;;30.27;22.04
80500;BME280;69823;54.120;-4.710;2023-06-14T03:19:07;100298.49;;;30.27;22.06
80500;BME280;69823;54.120;-4.710;2023-06-14T03:21:32;100301.44;;;30.31;22.01
80500;BME280;69823;54.120;-4.710;2023-06-14T03:23:58;100303.82;;;30.27;22.03
80500;BME280;69823;54.120;-4.710;2023-06-14T03:26:24;100298.60;;;30.26;22.04
80500;BME280;69823;54.120;-4.710;2023-06-14T03:28:49;100302.05;;;30.24;22.06
80500;BME280;69823;54.120;-4.710;2023-06-14T03:31:15;100302.30;;;30.27;22.03
80500;BME280;69823;54.120;-4.710;2023-06-14T03:33:41;100307.92;;;30.74;22.03
80500;BME280;69823;54.120;-4.710;2023-06-14T03:36:06;100309.44;;;30.30;21.98
80500;BME280;69823;54.120;-4.710;2023-06-14T03:38:32;100311.35;;;30.29;22.01
80500;BME280;69823;54.120;-4.710;2023-06-14T03:40:58;100307.47;;;30.55;21.99
80500;BME280;69823;54.120;-4.710;2023-06-14T03:43:23;100309.86;;;30.52;22.01
80500;BME280;69823;54.120;-4.710;2023-06-14T03:45:49;100310.39;;;30.29;21.98
80500;BME280;69823;54.120;-4.710;2023-06-14T03:48:15;100314.51;;;30.79;21.95
80500;BME280;69823;54.120;-4.710;2023-06-14T03:50:40;100310.99;;;30.76;21.99
80500;BME280;69823;54.120;-4.710;2023-06-14T03:53:06;100314.04;;;30.57;21.96
80500;BME280;69823;54.120;-4.710;2023-06-14T03:55:31;100315.23;;;30.34;21.91
80500;BME280;69823;54.120;-4.710;2023-06-14T03:57:57;100318.56;;;30.34;21.90
80500;BME280;69823;54.120;-4.710;2023-06-14T04:00:23;100315.78;;;30.33;21.92
80500;BME280;69823;54.120;-4.710;2023-06-14T04:02:48;100318.64;;;30.36;21.90
80500;BME280;69823;54.120;-4.710;2023-06-14T04:05:14;100317.54;;;30.36;21.87
80500;BME280;69823;54.120;-4.710;2023-06-14T04:07:39;100320.72;;;30.36;21.90
80500;BME280;69823;54.120;-4.710;2023-06-14T04:10:06;100322.35;;;30.61;21.85
80500;BME280;69823;54.120;-4.710;2023-06-14T04:12:30;100321.93;;;30.37;21.88
80500;BME280;69823;54.120;-4.710;2023-06-14T04:14:56;100324.04;;;30.34;21.87
80500;BME280;69823;54.120;-4.710;2023-06-14T04:17:22;100319.73;;;30.33;21.90
80500;BME280;69823;54.120;-4.710;2023-06-14T04:19:47;100322.72;;;30.30;21.91
80500;BME280;69823;54.120;-4.710;2023-06-14T04:22:13;100319.74;;;30.29;21.93
80500;BME280;69823;54.120;-4.710;2023-06-14T04:24:38;100316.30;;;30.28;21.91
80500;BME280;69823;54.120;-4.710;2023-06-14T04:27:04;100315.60;;;30.29;21.87
80500;BME280;69823;54.120;-4.710;2023-06-14T04:29:29;100316.20;;;30.77;21.91
80500;BME280;69823;54.120;-4.710;2023-06-14T04:31:55;100321.00;;;30.32;21.83
80500;BME280;69823;54.120;-4.710;2023-06-14T04:34:21;100320.55;;;30.32;21.84
80500;BME280;69823;54.120;-4.710;2023-06-14T04:36:47;100322.70;;;30.31;21.87
80500;BME280;69823;54.120;-4.710;2023-06-14T04:39:12;100322.90;;;30.32;21.82
80500;BME280;69823;54.120;-4.710;2023-06-14T04:41:37;100322.94;;;30.77;21.86
80500;BME280;69823;54.120;-4.710;2023-06-14T04:44:03;100326.78;;;30.54;21.84
80500;BME280;69823;54.120;-4.710;2023-06-14T04:46:29;100326.38;;;30.30;21.86
80500;BME280;69823;54.120;-4.710;2023-06-14T04:48:54;100328.43;;;30.54;21.84
80500;BME280;69823;54.120;-4.710;2023-06-14T04:51:20;100333.21;;;30.53;21.83
80500;BME280;69823;54.120;-4.710;2023-06-14T04:53:45;100334.76;;;30.29;21.84
80500;BME280;69823;54.120;-4.710;2023-06-14T04:56:11;100338.27;;;30.53;21.85
80500;BME280;69823;54.120;-4.710;2023-06-14T04:58:36;100333.77;;;30.75;21.86
80500;BME280;69823;54.120;-4.710;2023-06-14T05:01:02;100335.32;;;30.25;21.86
80500;BME280;69823;54.120;-4.710;2023-06-14T05:03:28;100335.01;;;30.76;21.82
80500;BME280;69823;54.120;-4.710;2023-06-14T05:05:53;100336.44;;;30.29;21.84
80500;BME280;69823;54.120;-4.710;2023-06-14T05:08:19;100338.50;;;30.50;21.83
80500;BME280;69823;54.120;-4.710;2023-06-14T05:10:44;100339.06;;;30.75;21.84
80500;BME280;69823;54.120;-4.710;2023-06-14T05:13:10;100344.50;;;30.29;21.76
80500;BME280;69823;54.120;-4.710;2023-06-14T05:15:36;100344.25;;;30.53;21.78
80500;BME280;69823;54.120;-4.710;2023-06-14T05:18:01;100345.13;;;30.53;21.76
80500;BME280;69823;54.120;-4.710;2023-06-14T05:20:27;100345.62;;;30.27;21.81
80500;BME280;69823;54.120;-4.710;2023-06-14T05:22:53;100350.78;;;30.52;21.78
80500;BME280;69823;54.120;-4.710;2023-06-14T05:25:18;100352.13;;;30.75;21.82
80500;BME280;69823;54.120;-4.710;2023-06-14T05:27:44;100352.46;;;30.28;21.74
80500;BME280;69823;54.120;-4.710;2023-06-14T05:30:11;100349.98;;;30.75;21.74
80500;BME280;69823;54.120;-4.710;2023-06-14T05:32:35;100345.45;;;30.76;21.76
80500;BME280;69823;54.120;-4.710;2023-06-14T05:35:01;100347.35;;;30.27;21.72
80500;BME280;69823;54.120;-4.710;2023-06-14T05:37:27;100340.08;;;30.74;21.75
80500;BME280;69823;54.120;-4.710;2023-06-14T05:39:52;100343.18;;;30.26;21.77
80500;BME280;69823;54.120;-4.710;2023-06-14T05:42:18;100341.68;;;30.69;21.81
80500;BME280;69823;54.120;-4.710;2023-06-14T05:44:49;100345.00;;;30.48;21.80
80500;BME280;69823;54.120;-4.710;2023-06-14T05:47:09;100343.30;;;30.44;21.80
80500;BME280;69823;54.120;-4.710;2023-06-14T05:49:34;100348.86;;;30.24;21.81
80500;BME280;69823;54.120;-4.710;2023-06-14T05:52:00;100349.67;;;30.22;21.77
80500;BME280;69823;54.120;-4.710;2023-06-14T05:54:26;100349.56;;;30.25;21.77
80500;BME280;69823;54.120;-4.710;2023-06-14T05:56:51;100348.58;;;30.48;21.79
80500;BME280;69823;54.120;-4.710;2023-06-14T05:59:17;100350.54;;;30.73;21.78
80500;BME280;69823;54.120;-4.710;2023-06-14T06:01:43;100351.01;;;30.71;21.78
80500;BME280;69823;54.120;-4.710;2023-06-14T06:04:08;100354.81;;;30.38;21.44
80500;BME280;69823;54.120;-4.710;2023-06-14T06:06:34;100357.64;;;30.23;21.59
80500;BME280;69823;54.120;-4.710;2023-06-14T06:08:59;100356.97;;;30.23;21.66
80500;BME280;69823;54.120;-4.710;2023-06-14T06:11:25;100352.99;;;30.14;22.25
80500;BME280;69823;54.120;-4.710;2023-06-14T06:13:51;100350.81;;;29.77;22.28
80500;BME280;69823;54.120;-4.710;2023-06-14T06:16:16;100349.63;;;30.07;22.08
80500;BME280;69823;54.120;-4.710;2023-06-14T06:18:42;100354.96;;;29.93;22.25
80500;BME280;69823;54.120;-4.710;2023-06-14T06:21:08;100359.81;;;29.80;21.87
80500;BME280;69823;54.120;-4.710;2023-06-14T06:23:33;100362.48;;;30.08;21.88
80500;BME280;69823;54.120;-4.710;2023-06-14T06:25:59;100368.29;;;29.22;22.02
80500;BME280;69823;54.120;-4.710;2023-06-14T06:28:24;100365.02;;;29.45;22.16
80500;BME280;69823;54.120;-4.710;2023-06-14T06:30:50;100372.98;;;28.96;22.19
80500;BME280;69823;54.120;-4.710;2023-06-14T06:33:15;100368.38;;;29.46;21.99
80500;BME280;69823;54.120;-4.710;2023-06-14T06:35:41;100368.91;;;29.62;22.03
80500;BME280;69823;54.120;-4.710;2023-06-14T06:38:07;100377.50;;;29.69;21.71
80500;BME280;69823;54.120;-4.710;2023-06-14T06:40:32;100376.94;;;29.35;21.90
80500;BME280;69823;54.120;-4.710;2023-06-14T06:42:58;100379.06;;;29.65;21.40
80500;BME280;69823;54.120;-4.710;2023-06-14T06:45:23;100379.27;;;29.41;21.54
80500;BME280;69823;54.120;-4.710;2023-06-14T06:47:49;100378.28;;;29.78;21.04
80500;BME280;69823;54.120;-4.710;2023-06-14T06:50:14;100376.11;;;29.55;20.88
80500;BME280;69823;54.120;-4.710;2023-06-14T06:52:39;100376.41;;;29.65;21.11
80500;BME280;69823;54.120;-4.710;2023-06-14T06:55:06;100381.90;;;29.63;21.06
80500;BME280;69823;54.120;-4.710;2023-06-14T06:57:31;100378.86;;;29.16;21.02
80500;BME280;69823;54.120;-4.710;2023-06-14T06:59:57;100377.08;;;29.75;20.42
80500;BME280;69823;54.120;-4.710;2023-06-14T07:02:22;100375.67;;;30.21;20.37
80500;BME280;69823;54.120;-4.710;2023-06-14T07:04:47;100377.72;;;29.57;20.77
80500;BME280;69823;54.120;-4.710;2023-06-14T07:07:13;100373.80;;;29.71;20.67
80500;BME280;69823;54.120;-4.710;2023-06-14T07:09:39;100373.12;;;29.95;20.38
80500;BME280;69823;54.120;-4.710;2023-06-14T07:12:05;100373.26;;;30.24;20.19
80500;BME280;69823;54.120;-4.710;2023-06-14T07:14:30;100375.21;;;30.50;20.01
80500;BME280;69823;54.120;-4.710;2023-06-14T07:16:56;100374.59;;;30.18;19.87
80500;BME280;69823;54.120;-4.710;2023-06-14T07:19:22;100369.99;;;30.04;20.04
80500;BME280;69823;54.120;-4.710;2023-06-14T07:21:47;100371.12;;;30.26;19.57
80500;BME280;69823;54.120;-4.710;2023-06-14T07:24:13;100372.26;;;29.56;20.28
80500;BME280;69823;54.120;-4.710;2023-06-14T07:26:38;100369.98;;;29.60;19.86
80500;BME280;69823;54.120;-4.710;2023-06-14T07:29:03;100372.39;;;30.28;19.16
80500;BME280;69823;54.120;-4.710;2023-06-14T07:31:29;100369.39;;;30.18;19.24
80500;BME280;69823;54.120;-4.710;2023-06-14T07:33:55;100375.77;;;30.29;19.01
80500;BME280;69823;54.120;-4.710;2023-06-14T07:36:21;100378.34;;;30.39;18.79
80500;BME280;69823;54.120;-4.710;2023-06-14T07:38:46;100384.70;;;30.54;18.58
80500;BME280;69823;54.120;-4.710;2023-06-14T07:41:12;100386.28;;;30.21;18.96
80500;BME280;69823;54.120;-4.710;2023-06-14T07:43:37;100386.69;;;30.71;18.35
80500;BME280;69823;54.120;-4.710;2023-06-14T07:46:03;100390.90;;;30.24;18.52
80500;BME280;69823;54.120;-4.710;2023-06-14T07:48:28;100388.12;;;30.17;18.45
80500;BME280;69823;54.120;-4.710;2023-06-14T07:50:54;100394.93;;;30.59;18.28
80500;BME280;69823;54.120;-4.710;2023-06-14T07:53:20;100395.51;;;30.40;18.12
80500;BME280;69823;54.120;-4.710;2023-06-14T07:55:45;100395.17;;;30.29;18.34
80500;BME280;69823;54.120;-4.710;2023-06-14T07:58:12;100397.72;;;30.65;17.92
80500;BME280;69823;54.120;-4.710;2023-06-14T08:00:37;100396.47;;;30.39;18.25
80500;BME280;69823;54.120;-4.710;2023-06-14T08:03:03;100397.25;;;30.39;18.06
80500;BME280;69823;54.120;-4.710;2023-06-14T08:05:28;100403.29;;;30.59;18.06
80500;BME280;69823;54.120;-4.710;2023-06-14T08:07:54;100396.61;;;30.30;18.22
80500;BME280;69823;54.120;-4.710;2023-06-14T08:10:20;100394.78;;;30.55;17.80
80500;BME280;69823;54.120;-4.710;2023-06-14T08:12:45;100398.18;;;30.55;17.89
80500;BME280;69823;54.120;-4.710;2023-06-14T08:15:11;100396.49;;;30.10;18.22
80500;BME280;69823;54.120;-4.710;2023-06-14T08:17:36;100397.92;;;30.82;17.80
80500;BME280;69823;54.120;-4.710;2023-06-14T08:20:02;100396.29;;;30.21;17.69
80500;BME280;69823;54.120;-4.710;2023-06-14T08:22:28;100392.50;;;30.01;17.72
80500;BME280;69823;54.120;-4.710;2023-06-14T08:24:53;100393.36;;;29.88;17.68
80500;BME280;69823;54.120;-4.710;2023-06-14T08:27:19;100393.35;;;30.44;17.34
80500;BME280;69823;54.120;-4.710;2023-06-14T08:29:45;100393.69;;;30.24;17.19
80500;BME280;69823;54.120;-4.710;2023-06-14T08:32:10;100394.19;;;30.24;17.28
80500;BME280;69823;54.120;-4.710;2023-06-14T08:34:36;100398.42;;;29.98;17.30
80500;BME280;69823;54.120;-4.710;2023-06-14T08:37:01;100403.34;;;30.24;17.28
80500;BME280;69823;54.120;-4.710;2023-06-14T08:39:27;100401.86;;;30.29;17.13
80500;BME280;69823;54.120;-4.710;2023-06-14T08:41:54;100401.65;;;30.21;17.05
80500;BME280;69823;54.120;-4.710;2023-06-14T08:44:19;100403.17;;;30.27;17.06
80500;BME280;69823;54.120;-4.710;2023-06-14T08:46:45;100405.46;;;30.64;16.43
80500;BME280;69823;54.120;-4.710;2023-06-14T08:49:12;100405.52;;;30.17;16.94
80500;BME280;69823;54.120;-4.710;2023-06-14T08:51:36;100408.06;;;30.04;17.02
80500;BME280;69823;54.120;-4.710;2023-06-14T08:54:02;100405.76;;;30.16;16.91
80500;BME280;69823;54.120;-4.710;2023-06-14T08:56:28;100406.41;;;30.22;16.78
80500;BME280;69823;54.120;-4.710;2023-06-14T08:58:53;100408.79;;;30.20;16.86
80500;BME280;69823;54.120;-4.710;2023-06-14T09:01:19;100407.18;;;30.31;16.80
80500;BME280;69823;54.120;-4.710;2023-06-14T09:03:44;100408.01;;;29.95;16.51
80500;BME280;69823;54.120;-4.710;2023-06-14T09:06:10;100410.03;;;29.89;16.69
80500;BME280;69823;54.120;-4.710;2023-06-14T09:08:35;100409.87;;;29.64;16.98
80500;BME280;69823;54.120;-4.710;2023-06-14T09:11:02;100412.88;;;29.82;16.69
80500;BME280;69823;54.120;-4.710;2023-06-14T09:13:27;100408.64;;;29.27;16.66
80500;BME280;69823;54.120;-4.710;2023-06-14T09:15:53;100408.89;;;29.48;16.89
80500;BME280;69823;54.120;-4.710;2023-06-14T09:18:18;100411.00;;;29.47;16.71
80500;BME280;69823;54.120;-4.710;2023-06-14T09:20:44;100410.70;;;29.20;16.85
80500;BME280;69823;54.120;-4.710;2023-06-14T09:23:10;100408.45;;;29.68;16.69
80500;BME280;69823;54.120;-4.710;2023-06-14T09:25:42;100406.59;;;29.80;16.68
80500;BME280;69823;54.120;-4.710;2023-06-14T09:28:01;100408.97;;;29.47;16.38
80500;BME280;69823;54.120;-4.710;2023-06-14T09:30:28;100406.97;;;29.63;16.48
80500;BME280;69823;54.120;-4.710;2023-06-14T09:32:52;100414.02;;;29.44;16.71
80500;BME280;69823;54.120;-4.710;2023-06-14T09:35:18;100414.88;;;29.07;16.69
80500;BME280;69823;54.120;-4.710;2023-06-14T09:37:44;100415.49;;;29.30;16.79
80500;BME280;69823;54.120;-4.710;2023-06-14T09:40:10;100417.45;;;29.38;16.53
80500;BME280;69823;54.120;-4.710;2023-06-14T09:42:35;100417.23;;;29.56;16.55
80500;BME280;69823;54.120;-4.710;2023-06-14T09:45:02;100417.27;;;29.25;16.79
80500;BME280;69823;54.120;-4.710;2023-06-14T09:47:27;100419.16;;;29.29;16.66
80500;BME280;69823;54.120;-4.710;2023-06-14T09:49:52;100421.48;;;28.87;16.71
80500;BME280;69823;54.120;-4.710;2023-06-14T09:52:19;100421.55;;;29.13;16.56
80500;BME280;69823;54.120;-4.710;2023-06-14T09:54:45;100420.27;;;29.35;16.71
80500;BME280;69823;54.120;-4.710;2023-06-14T09:57:10;100418.58;;;29.37;16.74
80500;BME280;69823;54.120;-4.710;2023-06-14T09:59:35;100423.29;;;29.08;16.49
80500;BME280;69823;54.120;-4.710;2023-06-14T10:02:05;100421.97;;;29.01;16.43
80500;BME280;69823;54.120;-4.710;2023-06-14T10:04:27;100424.02;;;29.30;16.35
80500;BME280;69823;54.120;-4.710;2023-06-14T10:06:52;100424.19;;;29.05;16.13
80500;BME280;69823;54.120;-4.710;2023-06-14T10:09:17;100427.63;;;29.04;16.54
80500;BME280;69823;54.120;-4.710;2023-06-14T10:11:43;100432.71;;;29.08;16.67
80500;BME280;69823;54.120;-4.710;2023-06-14T10:14:09;100429.07;;;29.25;16.70
80500;BME280;69823;54.120;-4.710;2023-06-14T10:16:38;100429.17;;;28.95;16.76
80500;BME280;69823;54.120;-4.710;2023-06-14T10:19:04;100431.23;;;28.76;16.68
80500;BME280;69823;54.120;-4.710;2023-06-14T10:21:31;100429.72;;;29.30;16.43
80500;BME280;69823;54.120;-4.710;2023-06-14T10:23:51;100427.79;;;28.87;16.50
80500;BME280;69823;54.120;-4.710;2023-06-14T10:26:20;100421.24;;;29.06;16.22
80500;BME280;69823;54.120;-4.710;2023-06-14T10:31:09;100425.08;;;29.05;16.26
80500;BME280;69823;54.120;-4.710;2023-06-14T10:33:34;100421.54;;;28.82;15.80
80500;BME280;69823;54.120;-4.710;2023-06-14T10:36:10;100419.41;;;29.26;15.84
80500;BME280;69823;54.120;-4.710;2023-06-14T10:38:30;100421.52;;;29.13;16.18
80500;BME280;69823;54.120;-4.710;2023-06-14T10:40:52;100418.19;;;29.31;16.05
80500;BME280;69823;54.120;-4.710;2023-06-14T10:43:23;100419.83;;;29.05;15.84
80500;BME280;69823;54.120;-4.710;2023-06-14T10:50:34;100413.77;;;29.15;16.01
80500;BME280;69823;54.120;-4.710;2023-06-14T10:52:59;100418.69;;;29.08;16.12
80500;BME280;69823;54.120;-4.710;2023-06-14T10:55:25;100414.96;;;29.19;15.67
80500;BME280;69823;54.120;-4.710;2023-06-14T10:57:52;100416.51;;;29.03;16.14
80500;BME280;69823;54.120;-4.710;2023-06-14T11:00:18;100413.33;;;28.76;15.86
80500;BME280;69823;54.120;-4.710;2023-06-14T11:05:08;100412.62;;;28.76;16.05
80500;BME280;69823;54.120;-4.710;2023-06-14T11:07:47;100411.44;;;28.87;16.10
80500;BME280;69823;54.120;-4.710;2023-06-14T11:10:09;100412.00;;;28.90;15.77
80500;BME280;69823;54.120;-4.710;2023-06-14T11:12:27;100411.96;;;28.78;15.96
80500;BME280;69823;54.120;-4.710;2023-06-14T11:14:51;100411.62;;;28.78;15.94
80500;BME280;69823;54.120;-4.710;2023-06-14T11:17:17;100408.04;;;28.75;15.82
80500;BME280;69823;54.120;-4.710;2023-06-14T11:19:43;100410.12;;;28.76;15.90
80500;BME280;69823;54.120;-4.710;2023-06-14T11:22:08;100406.76;;;28.86;15.74
80500;BME280;69823;54.120;-4.710;2023-06-14T11:24:34;100404.15;;;28.81;15.52
80500;BME280;69823;54.120;-4.710;2023-06-14T11:26:59;100404.88;;;28.60;15.58
80500;BME280;69823;54.120;-4.710;2023-06-14T11:29:25;100400.73;;;28.59;15.77
80500;BME280;69823;54.120;-4.710;2023-06-14T11:31:51;100396.95;;;28.65;15.94
80500;BME280;69823;54.120;-4.710;2023-06-14T11:34:17;100398.73;;;28.70;15.95
80500;BME280;69823;54.120;-4.710;2023-06-14T11:36:42;100395.17;;;29.08;16.34
80500;BME280;69823;54.120;-4.710;2023-06-14T11:39:08;100392.96;;;28.52;16.38
80500;BME280;69823;54.120;-4.710;2023-06-14T11:41:37;100395.38;;;28.63;16.11
80500;BME280;69823;54.120;-4.710;2023-06-14T11:44:00;100392.14;;;28.57;15.91
80500;BME280;69823;54.120;-4.710;2023-06-14T11:46:25;100390.01;;;28.50;16.30
80500;BME280;69823;54.120;-4.710;2023-06-14T11:48:51;100393.52;;;28.64;16.65
80500;BME280;69823;54.120;-4.710;2023-06-14T11:51:18;100389.10;;;28.66;16.40
80500;BME280;69823;54.120;-4.710;2023-06-14T11:53:43;100388.33;;;28.73;16.59
80500;BME280;69823;54.120;-4.710;2023-06-14T11:56:08;100381.22;;;28.76;16.34
80500;BME280;69823;54.120;-4.710;2023-06-14T11:58:34;100378.85;;;28.91;16.23
80500;BME280;69823;54.120;-4.710;2023-06-14T12:01:00;100377.46;;;28.94;16.33
80500;BME280;69823;54.120;-4.710;2023-06-14T12:03:26;100386.19;;;28.83;16.95
80500;BME280;69823;54.120;-4.710;2023-06-14T12:06:03;100380.25;;;28.86;16.37
80500;BME280;69823;54.120;-4.710;2023-06-14T12:08:17;100381.28;;;28.77;16.84
80500;BME280;69823;54.120;-4.710;2023-06-14T12:10:43;100375.89;;;28.44;17.13
80500;BME280;69823;54.120;-4.710;2023-06-14T12:13:08;100379.86;;;28.66;17.09
80500;BME280;69823;54.120;-4.710;2023-06-14T12:15:34;100380.19;;;28.82;17.28
80500;BME280;69823;54.120;-4.710;2023-06-14T12:17:59;100378.06;;;28.58;17.20
80500;BME280;69823;54.120;-4.710;2023-06-14T12:20:29;100383.49;;;28.78;16.69
80500;BME280;69823;54.120;-4.710;2023-06-14T12:22:51;100383.09;;;28.99;16.81
80500;BME280;69823;54.120;-4.710;2023-06-14T12:25:27;100380.78;;;29.22;16.80
80500;BME280;69823;54.120;-4.710;2023-06-14T12:27:42;100383.66;;;29.13;16.91
80500;BME280;69823;54.120;-4.710;2023-06-14T12:30:09;100381.98;;;29.16;16.71
80500;BME280;69823;54.120;-4.710;2023-06-14T12:32:33;100383.49;;;29.03;16.55
80500;BME280;69823;54.120;-4.710;2023-06-14T12:34:59;100384.05;;;29.34;16.20
80500;BME280;69823;54.120;-4.710;2023-06-14T12:37:25;100386.55;;;29.65;16.58
80500;BME280;69823;54.120;-4.710;2023-06-14T12:39:50;100385.60;;;29.49;15.74